Skip Navigation LinksHome page > Weather > Current weather Skip Navigation Links

Current Weather

Chicago O'Hare Intl, Chicago

For information only: do not use for flight planning or navigation.
Latest weather
Observation time Monday, December 22, 2014 3:51 PM CST
Local time Monday, December 22, 2014 4:01 PM CST
Flight conditions Instrument Meteorological Conditions
Winds
Wind direction East (100°)
Wind speed 10 mph
Visibility 3 mi.
Present weather light rain, mist
Sky condition
Ceiling 700 ft. overcast
Cloud layer overcast 700 ft.
Temperature 37°F
Dewpoint 35°F
Altimeter 29.69 in.Hg
Precipitation
Precipitation last hour 0.03 in.
Derived measurements
Relative humidity 92%
Wind chill 30°F
Density altitude -443 ft.
Sea-level pressure 29.71 in.Hg
Remarks
Automated weather observing station with precipitation discriminator.
METAR KORD 222151Z 10009KT 3SM -RA BR OVC007 03/02 A2969 RMK AO2 SLP061 P0003 T00280017

Settings

Location code

InnerDrive.Weather 4.0.5399.0 Release CLR 4.0.30319.34014
Copyright ©2014 Inner Drive Technology. All rights reserved. Portions Copyright ©1986-2014 David Braverman.

Find weather

Site navigation


Skip Navigation Links

Place info

Page info

PayPal - The safer, easier way to pay online!

Return home.

Copyright ©2014 Inner Drive Technology. Purveyors of fine, hand-crafted computer software. Page printed 2014-12-22T22:01:30 UTC.